createdAt,value
2023-05-22T00:05:59.406Z,16.20
2023-05-22T00:12:01.999Z,16.20
2023-05-22T00:18:04.868Z,16.10
2023-05-22T00:24:07.436Z,16.00
2023-05-22T00:30:10.330Z,16.00
2023-05-22T00:36:13.154Z,16.10
2023-05-22T00:42:17.454Z,16.00
2023-05-22T00:48:20.616Z,15.90
2023-05-22T00:54:23.087Z,15.90
2023-05-22T01:00:25.766Z,16.00
2023-05-22T01:06:28.195Z,16.00
2023-05-22T01:12:39.323Z,16.10
2023-05-22T01:18:45.613Z,16.10
2023-05-22T01:25:07.385Z,16.10
2023-05-22T01:31:12.878Z,16.10
2023-05-22T01:37:15.939Z,16.10
2023-05-22T01:43:18.397Z,16.10
2023-05-22T01:49:20.752Z,16.10
2023-05-22T01:55:35.649Z,16.10
2023-05-22T02:01:39.256Z,16.20
2023-05-22T02:07:43.063Z,16.20
2023-05-22T02:13:46.055Z,16.30
2023-05-22T02:19:48.664Z,16.40
2023-05-22T02:25:51.156Z,16.40
2023-05-22T02:31:55.143Z,16.40
2023-05-22T02:37:57.811Z,16.40
2023-05-22T02:43:59.987Z,16.40
2023-05-22T02:50:03.207Z,16.40
2023-05-22T02:56:13.413Z,16.50
2023-05-22T03:02:17.147Z,16.50
2023-05-22T03:08:19.496Z,16.60
2023-05-22T03:14:21.887Z,16.70
2023-05-22T03:20:24.833Z,16.80
2023-05-22T03:26:28.781Z,16.90
2023-05-22T03:32:32.133Z,17.00
2023-05-22T03:38:34.792Z,17.30
2023-05-22T03:44:37.285Z,17.60
2023-05-22T03:50:41.932Z,17.90
2023-05-22T03:56:44.482Z,18.30
2023-05-22T04:02:47.277Z,18.50
2023-05-22T04:08:49.959Z,18.50
2023-05-22T04:14:52.718Z,18.40
2023-05-22T04:20:55.510Z,18.60
2023-05-22T04:27:00.742Z,18.80
2023-05-22T04:33:03.765Z,18.80
2023-05-22T04:39:06.302Z,19.10
2023-05-22T04:45:09.540Z,19.40
2023-05-22T04:51:12.522Z,19.40
2023-05-22T04:57:15.299Z,19.90
2023-05-22T05:03:17.882Z,20.60
2023-05-22T05:09:21.327Z,20.40
2023-05-22T05:15:24.281Z,20.40
2023-05-22T05:21:28.333Z,20.40
2023-05-22T05:27:35.470Z,21.10
2023-05-22T05:33:38.019Z,21.50
2023-05-22T05:39:44.452Z,22.40
2023-05-22T05:45:47.255Z,22.40
2023-05-22T05:51:49.590Z,26.40
2023-05-22T05:57:55.200Z,26.60
2023-05-22T06:04:06.010Z,24.30
2023-05-22T06:10:12.065Z,23.70
2023-05-22T06:16:34.849Z,23.30
2023-05-22T06:22:38.150Z,23.80
2023-05-22T06:28:40.871Z,25.70
2023-05-22T06:34:46.319Z,28.20
2023-05-22T06:40:50.877Z,29.20
2023-05-22T06:46:57.998Z,30.00
2023-05-22T06:53:01.415Z,30.80
2023-05-22T06:59:06.107Z,30.90
2023-05-22T07:05:38.251Z,30.60
2023-05-22T07:11:43.221Z,31.80
2023-05-22T07:17:47.088Z,29.60
2023-05-22T07:23:50.124Z,31.60
2023-05-22T07:29:52.684Z,32.10
2023-05-22T07:35:56.748Z,31.30
2023-05-22T07:41:59.591Z,31.50
2023-05-22T07:48:05.225Z,32.20
2023-05-22T07:54:11.482Z,32.00
2023-05-22T08:00:17.474Z,31.60
2023-05-22T08:06:20.388Z,30.60
2023-05-22T08:12:23.107Z,30.10
2023-05-22T08:18:28.542Z,30.20
2023-05-22T08:24:30.979Z,30.90
2023-05-22T08:30:33.296Z,31.00
2023-05-22T08:36:35.919Z,31.90
2023-05-22T08:42:38.028Z,30.50
2023-05-22T08:48:42.338Z,29.30
2023-05-22T08:54:52.127Z,30.00
2023-05-22T09:00:55.408Z,31.40
2023-05-22T09:06:58.120Z,28.80
2023-05-22T09:13:01.859Z,28.70
2023-05-22T09:19:05.652Z,30.90
2023-05-22T09:25:08.739Z,31.90
2023-05-22T09:31:11.637Z,32.90
2023-05-22T09:37:14.707Z,32.50
2023-05-22T09:43:18.536Z,30.90
2023-05-22T09:49:21.286Z,32.20
2023-05-22T09:55:24.299Z,32.80
2023-05-22T10:01:28.908Z,31.80
2023-05-22T10:07:37.986Z,32.70
2023-05-22T10:13:42.052Z,32.10
2023-05-22T10:19:46.806Z,31.20
2023-05-22T10:25:50.069Z,31.70
2023-05-22T10:31:57.938Z,32.10
2023-05-22T10:38:24.353Z,30.80
2023-05-22T10:44:27.090Z,29.50
2023-05-22T10:50:29.487Z,29.90
2023-05-22T10:56:36.436Z,28.80
2023-05-22T11:02:46.094Z,29.20
2023-05-22T11:09:00.202Z,29.20
2023-05-22T11:15:09.870Z,30.20
2023-05-22T11:21:14.023Z,30.00
2023-05-22T11:27:17.587Z,29.70
2023-05-22T11:33:20.155Z,28.90
2023-05-22T11:39:23.747Z,28.70
2023-05-22T11:45:27.376Z,28.90
2023-05-22T11:51:29.970Z,28.30
2023-05-22T11:57:38.662Z,28.10
2023-05-22T12:03:41.299Z,27.40
2023-05-22T12:09:43.935Z,27.30
2023-05-22T12:15:46.326Z,27.30
2023-05-22T12:21:52.524Z,26.90
2023-05-22T12:27:56.185Z,28.00
2023-05-22T12:33:58.390Z,29.00
2023-05-22T12:40:03.617Z,29.80
2023-05-22T12:46:05.969Z,29.20
2023-05-22T12:52:08.554Z,28.20
2023-05-22T12:58:11.109Z,28.00
2023-05-22T13:04:13.457Z,26.70
2023-05-22T13:10:16.566Z,26.10
2023-05-22T13:16:19.327Z,25.80
2023-05-22T13:22:22.328Z,25.90
2023-05-22T13:28:25.283Z,26.80
2023-05-22T13:34:28.562Z,27.40
2023-05-22T13:40:31.094Z,27.10
2023-05-22T13:46:33.404Z,27.30
2023-05-22T13:52:35.803Z,26.70
2023-05-22T13:58:38.481Z,26.20
2023-05-22T14:04:41.404Z,26.50
2023-05-22T14:10:43.871Z,25.90
2023-05-22T14:16:46.304Z,25.40
2023-05-22T14:28:58.284Z,25.20
2023-05-22T14:35:00.519Z,25.40
2023-05-22T14:41:03.097Z,25.50
2023-05-22T14:47:05.457Z,25.40
2023-05-22T14:53:08.015Z,25.10
2023-05-22T14:59:12.199Z,25.00
2023-05-22T15:05:14.784Z,24.90
2023-05-22T15:11:17.454Z,24.80
2023-05-22T15:17:19.746Z,24.90
2023-05-22T15:23:25.527Z,24.90
2023-05-22T15:29:29.433Z,24.90
2023-05-22T15:35:32.857Z,24.90
2023-05-22T15:41:35.294Z,24.80
2023-05-22T15:47:38.156Z,24.70
2023-05-22T15:53:41.171Z,24.60
2023-05-22T15:59:43.796Z,24.40
2023-05-22T16:05:47.383Z,24.20
2023-05-22T16:11:49.849Z,24.20
2023-05-22T16:17:52.678Z,24.00
2023-05-22T16:23:55.366Z,23.80
2023-05-22T16:29:57.767Z,23.70
2023-05-22T16:35:59.915Z,23.60
2023-05-22T16:42:02.270Z,23.40
2023-05-22T16:48:04.681Z,23.30
2023-05-22T16:54:07.011Z,23.20
2023-05-22T17:00:11.263Z,23.10
2023-05-22T17:06:13.897Z,22.90
2023-05-22T17:12:16.461Z,22.70
2023-05-22T17:18:20.439Z,22.60
2023-05-22T17:24:23.038Z,22.50
2023-05-22T17:30:25.453Z,22.40
2023-05-22T17:36:27.777Z,22.30
2023-05-22T17:42:30.240Z,22.30
2023-05-22T17:48:34.170Z,22.20
2023-05-22T17:54:36.474Z,22.20
2023-05-22T18:00:38.686Z,22.10
2023-05-22T18:06:41.407Z,22.10
2023-05-22T18:12:44.407Z,21.90
2023-05-22T18:18:46.710Z,21.70
2023-05-22T18:24:49.390Z,21.60
2023-05-22T18:30:52.901Z,21.40
2023-05-22T18:36:55.712Z,21.30
2023-05-22T18:42:58.007Z,21.30
2023-05-22T18:49:00.174Z,21.10
2023-05-22T18:55:02.472Z,20.90
2023-05-22T19:01:05.103Z,20.80
2023-05-22T19:07:08.235Z,20.50
2023-05-22T19:13:10.809Z,20.30
2023-05-22T19:19:15.296Z,20.10
2023-05-22T19:25:18.305Z,20.00
2023-05-22T19:31:20.885Z,19.90
2023-05-22T19:37:23.655Z,19.80
2023-05-22T19:43:26.324Z,19.70
2023-05-22T19:49:31.985Z,19.60
2023-05-22T19:55:34.653Z,19.40
2023-05-22T20:01:37.356Z,19.40
2023-05-22T20:07:40.313Z,19.30
2023-05-22T20:13:42.614Z,19.20
2023-05-22T20:19:45.704Z,19.10
2023-05-22T20:25:48.389Z,18.90
2023-05-22T20:31:55.010Z,18.80
2023-05-22T20:38:03.479Z,18.60
2023-05-22T20:44:06.860Z,18.40
2023-05-22T20:50:09.763Z,18.30
2023-05-22T20:56:12.034Z,18.20
2023-05-22T21:02:14.639Z,18.10
2023-05-22T21:08:17.012Z,17.90
2023-05-22T21:14:19.520Z,17.80
2023-05-22T21:20:22.418Z,17.70
2023-05-22T21:26:25.316Z,17.60
2023-05-22T21:32:29.792Z,17.50
2023-05-22T21:38:32.388Z,17.40
2023-05-22T21:44:34.638Z,17.30
2023-05-22T21:50:36.952Z,17.20
2023-05-22T21:56:39.219Z,17.20
2023-05-22T22:02:42.188Z,17.10
2023-05-22T22:08:44.774Z,17.10
2023-05-22T22:14:46.955Z,17.00
2023-05-22T22:20:54.429Z,16.90
2023-05-22T22:26:57.228Z,16.90
2023-05-22T22:32:59.797Z,16.90
2023-05-22T22:39:02.109Z,16.90
2023-05-22T22:45:10.106Z,16.80
2023-05-22T22:51:12.517Z,16.80
2023-05-22T22:57:15.040Z,16.70
2023-05-22T23:03:17.417Z,16.60
2023-05-22T23:09:20.571Z,16.40
2023-05-22T23:15:23.110Z,16.40
2023-05-22T23:21:25.612Z,16.40
2023-05-22T23:27:28.354Z,16.30
2023-05-22T23:33:30.942Z,16.30
2023-05-22T23:39:33.123Z,16.20
2023-05-22T23:45:35.496Z,16.20
2023-05-22T23:51:38.006Z,16.20
2023-05-22T23:57:40.430Z,16.10
